Kahuku, Hawaii
Current Conditions -  °F | °C
As of 8:55 AM on Tuesday 21 Oct 2014 (Local Time) from PHHI Reporting Station
Broken Clouds Broken Clouds  
Wind Chill: 27°   Ceiling: 12000
Heat Index: 28°   Visibility: 7mi
Dew Point: 20°   Wind: 1mph
Humidity: 65%   Direction: 70°ENE
Pressure: 30.1"   Gusts: NA
Location:  21.67°N, 157.94°W
Report Text: PHHI 211855Z 07001KT 7SM FEW025 BKN120 27/20 A3010 RMK SLPNO AO2A WND DATA ESTMD ALSTG ESTMD
Loading
Personal Weather Stations






























Interactive Weather Map
Tropical Storm Tracking
New forecast layout! Learn more

10-Day Weather Forecast

Advertisements
Track Severe Weather on mobile